Latest Coastal Weather Observations for Cape Sorell

IDT60701

Issued at 11:12 am EDT Thursday 23 March 2017 (issued every 10 minutes, with the page automatically refreshed every 10 minutes)

About coastal observations | Map of coastal stations | Coastal observations for TAS | Marine services | Other Formats
Station Details ID: 097000 Name: CAPE SORELL Lat: -42.20 Lon: 145.17 Height: 19.3 m
Data from the previous 72 hours. | See also: Recent months at Cape Sorell
Date/Time
EDT
Temp
°C
Wind Pressure Rain since
9am
mm
Weather Cloud Vis
km
Sea
Height
m
Swell
Dir  Spd
kts
Gust
kts
hPa Trend Height
m
Period
s
Dir
23/11:00am 18.4 NW 7 9 1025.2 - 0.0 - - - - - - -
23/10:30am 17.2 WNW 9 11 1025.1 - 0.0 - - - - - - -
23/10:00am 17.7 WNW 10 13 1024.9 - 0.0 - - - - - - -
23/09:30am 17.4 NW 9 15 1024.9 - 0.0 - - - - - - -
23/09:00am 16.6 NW 9 13 1024.6 - 0.0 - - - - - - -
23/08:30am 16.5 NW 9 14 1024.4 - 0.0 - - - - - - -
23/08:00am 16.4 NW 10 14 1024.2 - 0.0 - - - - - - -
23/07:30am 16.4 NNW 12 14 1023.8 - 0.0 - - - - - - -
23/07:00am 16.3 NNW 11 16 1023.5 - 0.0 - - - - - - -
23/06:30am 16.3 NNW 9 12 1023.3 - 0.0 - - - - - - -
23/06:00am 16.4 NW 8 11 1023.2 - 0.0 - - - - - - -
23/05:30am 16.5 NNW 11 14 1023.0 - 0.0 - - - - - - -
23/05:00am 16.7 N 13 16 1022.8 - 0.0 - - - - - - -
23/04:30am 16.4 N 11 13 1022.6 - 0.0 - - - - - - -
23/04:00am 14.8 ENE 6 7 1022.5 - 0.0 - - - - - - -
23/03:30am 14.3 ENE 5 7 1022.5 - 0.0 - - - - - - -
23/03:00am 14.6 NE 3 5 1022.5 - 0.0 - - - - - - -
23/02:30am 14.2 ENE 3 4 1022.5 - 0.0 - - - - - - -
23/02:00am 13.4 SE 4 4 1022.5 - 0.0 - - - - - - -
23/01:30am 13.6 SE 5 6 1022.8 - 0.0 - - - - - - -
23/01:00am 14.1 SSE 4 6 1022.6 - 0.0 - - - - - - -
23/12:30am 14.2 SSE 5 6 1022.6 - 0.0 - - - - - - -
23/12:00am 14.1 SSE 4 6 1022.8 - 0.0 - - - - - - -
 
Date/Time
EDT
Temp
°C
Wind Pressure Rain since
9am
mm
Weather Cloud Vis
km
Sea
Height
m
Swell
Dir  Spd
kts
Gust
kts
hPa Trend Height
m
Period
s
Dir
22/11:30pm 14.7 SSE 8 11 1022.8 - 0.0 - - - - - - -
22/11:00pm 15.2 S 13 16 1022.5 - 0.0 - - - - - - -
22/10:30pm 14.8 SSE 11 15 1022.3 - 0.0 - - - - - - -
22/10:00pm 15.3 S 12 16 1022.2 - 0.0 - - - - - - -
22/09:30pm 15.7 S 13 18 1021.8 - 0.0 - - - - - - -
22/09:00pm 15.8 S 17 22 1021.5 - 0.0 - - - - - - -
22/08:30pm 16.2 S 14 19 1021.2 - 0.0 - - - - - - -
22/08:00pm 16.4 S 19 24 1020.9 - 0.0 - - - - - - -
22/07:30pm 16.4 S 17 23 1020.8 - 0.0 - - - - - - -
22/07:00pm 16.8 S 17 22 1020.3 - 0.0 - - - - - - -
22/06:30pm 16.9 S 19 24 1020.0 - 0.0 - - - - - - -
22/06:00pm 17.0 S 20 25 1020.0 - 0.0 - - - - - - -
22/05:30pm 17.4 S 22 27 1019.8 - 0.0 - - - - - - -
22/05:00pm 17.2 S 23 29 1019.7 - 0.0 - - - - - - -
22/04:30pm 17.2 S 22 29 1019.7 - 0.0 - - - - - - -
22/04:00pm 17.7 S 22 29 1019.8 - 0.0 - - - - - - -
22/03:30pm 17.3 S 21 29 1019.8 - 0.0 - - - - - - -
22/03:00pm 17.5 S 22 28 1019.9 - 0.0 - - - - - - -
22/02:30pm 18.1 S 19 24 1019.8 - 0.0 - - - - - - -
22/02:00pm 18.2 S 21 27 1019.9 - 0.0 - - - - - - -
22/01:30pm 17.9 S 19 24 1019.9 - 0.0 - - - - - - -
22/01:00pm 17.8 S 18 23 1019.9 - 0.0 - - - - - - -
22/12:30pm 18.1 S 17 21 1020.2 - 0.0 - - - - - - -
22/12:00pm 18.0 SSW 14 16 1020.3 - 0.0 - - - - - - -
22/11:30am 18.1 S 11 14 1020.3 - 0.0 - - - - - - -
22/11:00am 17.3 S 13 15 1020.4 - 0.0 - - - - - - -
22/10:30am 16.6 S 13 16 1020.3 - 0.0 - - - - - - -
22/10:00am 15.7 S 13 16 1020.0 - 0.0 - - - - - - -
22/09:30am 15.4 S 11 14 1019.6 - 0.0 - - - - - - -
22/09:00am 15.2 S 11 15 1019.3 - 0.0 - - - - - - -
22/08:30am 14.8 S 13 16 1018.7 - 0.0 - - - - - - -
22/08:00am 14.8 S 12 17 1018.3 - 0.0 - - - - - - -
22/07:30am 14.9 S 11 14 1017.7 - 0.0 - - - - - - -
22/07:00am 14.5 S 11 13 1017.4 - 0.0 - - - - - - -
22/06:30am 14.7 S 12 16 1017.1 - 0.0 - - - - - - -
22/06:00am 15.1 S 14 17 1016.9 - 0.0 - - - - - - -
22/05:30am 15.1 S 11 14 1016.7 - 0.0 - - - - - - -
22/05:00am 15.4 S 13 16 1016.8 - 0.0 - - - - - - -
22/04:30am 15.0 SSE 9 12 1016.7 - 0.0 - - - - - - -
22/04:00am 15.3 S 13 15 1016.7 - 0.0 - - - - - - -
22/03:30am 15.5 S 13 18 1016.6 - 0.0 - - - - - - -
22/03:00am 15.7 S 8 11 1016.6 - 0.0 - - - - - - -
22/02:30am 15.5 S 4 5 1016.8 - 0.0 - - - - - - -
22/02:00am 15.0 SSE 4 5 1016.8 - 0.0 - - - - - - -
22/01:30am 15.1 SE 5 7 1016.6 - 0.0 - - - - - - -
22/01:00am 15.6 SSE 5 7 1016.8 - 0.0 - - - - - - -
22/12:30am 15.5 SSE 6 8 1016.7 - 0.0 - - - - - - -
22/12:00am 15.7 SE 5 6 1016.6 - 0.0 - - - - - - -
 
Date/Time
EDT
Temp
°C
Wind Pressure Rain since
9am
mm
Weather Cloud Vis
km
Sea
Height
m
Swell
Dir  Spd
kts
Gust
kts
hPa Trend Height
m
Period
s
Dir
21/11:30pm 16.0 S 8 10 1016.7 - 0.0 - - - - - - -
21/11:00pm 16.2 S 8 11 1016.8 - 0.0 - - - - - - -
21/10:30pm 16.0 SSE 5 7 1016.9 - 0.0 - - - - - - -
21/10:00pm 15.7 SE 4 5 1016.8 - 0.0 - - - - - - -
21/09:30pm 16.1 SSE 9 11 1016.7 - 0.0 - - - - - - -
21/09:00pm 16.3 S 11 16 1016.3 - 0.0 - - - - - - -
21/08:30pm 16.3 S 8 10 1016.0 - 0.0 - - - - - - -
21/08:00pm 16.6 SSE 9 12 1015.7 - 0.0 - - - - - - -
21/07:30pm 16.7 S 9 11 1015.7 - 0.0 - - - - - - -
21/07:00pm 16.6 S 11 13 1015.5 - 0.0 - - - - - - -
21/06:30pm 16.6 S 15 18 1015.5 - 0.0 - - - - - - -
21/06:00pm 16.9 S 14 19 1015.6 - 0.0 - - - - - - -
21/05:30pm 17.0 S 13 16 1015.9 - 0.0 - - - - - - -
21/05:00pm 17.4 S 13 15 1016.0 - 0.0 - - - - - - -
21/04:30pm 17.1 S 13 15 1016.1 - 0.0 - - - - - - -
21/04:00pm 17.0 S 15 18 1016.2 - 0.0 - - - - - - -
21/03:30pm 17.1 S 17 19 1016.4 - 0.0 - - - - - - -
21/03:00pm 16.9 SSW 17 20 1016.4 - 0.0 - - - - - - -
21/02:30pm 17.0 SSW 17 20 1016.5 - 0.0 - - - - - - -
21/02:00pm 17.2 SSW 16 18 1016.6 - 0.0 - - - - - - -
21/01:30pm 17.4 SSW 13 15 1017.0 - 0.0 - - - - - - -
21/01:00pm 17.9 SSW 11 13 1017.2 - 0.0 - - - - - - -
21/12:30pm 18.2 SSW 10 12 1017.4 - 0.0 - - - - - - -
21/12:00pm 17.7 S 9 11 1017.6 - 0.0 - - - - - - -
21/11:30am 17.7 S 11 14 1017.9 - 0.0 - - - - - - -
21/11:00am 17.6 SSW 11 13 1018.0 - 0.0 - - - - - - -
21/10:30am 17.0 S 10 12 1017.9 - 0.0 - - - - - - -
21/10:00am 17.0 SSE 7 9 1018.2 - 0.0 - - - - - - -
21/09:30am 15.9 SSE 6 9 1018.6 - 0.0 - - - - - - -
21/09:00am 15.5 SSE 6 8 1018.3 - 0.0 - - - - - - -
21/08:30am 14.9 S 6 8 1018.2 - 0.0 - - - - - - -
21/08:00am 14.6 SSE 5 6 1018.2 - 0.0 - - - - - - -
21/07:30am 14.2 SSE 4 5 1018.2 - 0.0 - - - - - - -
21/07:00am 14.1 SE 4 5 1017.8 - 0.0 - - - - - - -
21/06:30am 14.1 SSE 5 5 1017.8 - 0.0 - - - - - - -
21/06:00am 14.1 SSE 4 5 1017.8 - 0.0 - - - - - - -
21/05:30am 14.4 S 3 4 1017.9 - 0.0 - - - - - - -
21/05:00am 14.9 CALM 0 0 1017.9 - 0.0 - - - - - - -
21/04:30am 14.2 NE 2 2 1018.0 - 0.0 - - - - - - -
21/04:00am 14.1 NE 1 4 1018.0 - 0.0 - - - - - - -
21/03:30am 15.2 CALM 0 0 1017.9 - 0.0 - - - - - - -
21/03:00am 15.1 CALM 0 0 1018.0 - 0.0 - - - - - - -
21/02:30am 15.0 NNE 2 3 1018.0 - 0.0 - - - - - - -
21/02:00am 14.4 E 2 3 1018.0 - 0.0 - - - - - - -
21/01:30am 14.2 SE 3 3 1018.1 - 0.0 - - - - - - -
21/01:00am 14.5 S 4 6 1018.1 - 0.0 - - - - - - -
21/12:30am 14.6 SSE 4 5 1018.0 - 0.0 - - - - - - -
21/12:00am 14.9 S 7 9 1018.0 - 0.0 - - - - - - -
 
Date/Time
EDT
Temp
°C
Wind Pressure Rain since
9am
mm
Weather Cloud Vis
km
Sea
Height
m
Swell
Dir  Spd
kts
Gust
kts
hPa Trend Height
m
Period
s
Dir
20/11:30pm 15.2 S 9 11 1018.0 - 0.0 - - - - - - -
20/11:00pm 15.5 S 10 13 1017.9 - 0.0 - - - - - - -
20/10:30pm 15.6 S 9 11 1017.9 - 0.0 - - - - - - -
20/10:00pm 15.6 S 9 12 1017.7 - 0.0 - - - - - - -
20/09:30pm 15.2 SSE 9 12 1017.9 - 0.0 - - - - - - -
20/09:00pm 16.1 S 13 18 1017.7 - 0.0 - - - - - - -
20/08:30pm 16.4 S 17 22 1017.3 - 0.0 - - - - - - -
20/08:00pm 16.5 S 21 25 1017.0 - 0.0 - - - - - - -
20/07:30pm 16.6 S 22 26 1016.8 - 0.0 - - - - - - -
20/07:00pm 17.1 S 19 24 1016.8 - 0.0 - - - - - - -
20/06:30pm 17.4 S 21 25 1016.6 - 0.0 - - - - - - -
20/06:00pm 17.6 S 19 23 1016.5 - 0.0 - - - - - - -
20/05:30pm 18.0 S 17 22 1016.5 - 0.0 - - - - - - -
20/05:00pm 18.0 S 19 23 1016.6 - 0.0 - - - - - - -
20/04:30pm 18.2 S 18 24 1016.6 - 0.0 - - - - - - -
20/04:00pm 18.3 S 16 20 1017.0 - 0.0 - - - - - - -
20/03:30pm 18.5 S 17 20 1017.2 - 0.0 - - - - - - -
20/03:00pm 18.5 S 18 21 1017.2 - 0.0 - - - - - - -
20/02:30pm 18.6 SSW 16 20 1017.3 - 0.0 - - - - - - -
20/02:00pm 18.6 S 13 17 1017.4 - 0.0 - - - - - - -
20/01:30pm 18.4 S 13 15 1017.6 - 0.0 - - - - - - -
20/01:00pm 18.0 S 15 17 1017.7 - 0.0 - - - - - - -
20/12:30pm 18.3 S 14 17 1017.8 - 0.0 - - - - - - -
20/12:00pm 18.7 SSW 11 13 1018.1 - 0.0 - - - - - - -
20/11:30am 18.8 SSW 11 12 1018.2 - 0.0 - - - - - - -

Other Formats:

Comma delimited format used in spreadsheet applications
http://www.bom.gov.au/fwo/IDT60701/IDT60701.94974.axf

JavaScript Object Notation format (JSON) in row-major order
http://www.bom.gov.au/fwo/IDT60701/IDT60701.94974.json